sensor_id;sensor_type;location;lat;lon;timestamp;pressure;altitude;pressure_sealevel;temperature;humidity
64841;BME280;51307;52.162;7.560;2022-08-19T00:00:26;100835.63;;;18.78;87.89
64841;BME280;51307;52.162;7.560;2022-08-19T00:02:53;100839.31;;;18.77;87.90
64841;BME280;51307;52.162;7.560;2022-08-19T00:05:19;100842.38;;;18.81;88.16
64841;BME280;51307;52.162;7.560;2022-08-19T00:07:45;100843.19;;;18.81;88.02
64841;BME280;51307;52.162;7.560;2022-08-19T00:10:13;100843.19;;;18.81;87.65
64841;BME280;51307;52.162;7.560;2022-08-19T00:12:40;100829.94;;;18.81;88.04
64841;BME280;51307;52.162;7.560;2022-08-19T00:15:09;100835.44;;;18.80;87.86
64841;BME280;51307;52.162;7.560;2022-08-19T00:17:40;100842.97;;;18.76;87.76
64841;BME280;51307;52.162;7.560;2022-08-19T00:20:08;100847.06;;;18.72;88.35
64841;BME280;51307;52.162;7.560;2022-08-19T00:22:34;100837.47;;;18.71;88.86
64841;BME280;51307;52.162;7.560;2022-08-19T00:24:59;100835.88;;;18.70;89.12
64841;BME280;51307;52.162;7.560;2022-08-19T00:27:25;100838.72;;;18.68;88.77
64841;BME280;51307;52.162;7.560;2022-08-19T00:29:50;100832.00;;;18.66;88.94
64841;BME280;51307;52.162;7.560;2022-08-19T00:32:16;100837.91;;;18.68;88.86
64841;BME280;51307;52.162;7.560;2022-08-19T00:34:41;100831.19;;;18.65;88.96
64841;BME280;51307;52.162;7.560;2022-08-19T00:37:07;100840.13;;;18.64;89.48
64841;BME280;51307;52.162;7.560;2022-08-19T00:39:32;100850.72;;;18.64;89.49
64841;BME280;51307;52.162;7.560;2022-08-19T00:41:58;100852.34;;;18.65;89.18
64841;BME280;51307;52.162;7.560;2022-08-19T00:44:27;100847.88;;;18.59;88.71
64841;BME280;51307;52.162;7.560;2022-08-19T00:46:56;100838.53;;;18.50;88.30
64841;BME280;51307;52.162;7.560;2022-08-19T00:49:29;100833.84;;;18.45;88.44
64841;BME280;51307;52.162;7.560;2022-08-19T00:52:07;100839.72;;;18.41;88.15
64841;BME280;51307;52.162;7.560;2022-08-19T00:54:36;100837.69;;;18.36;88.22
64841;BME280;51307;52.162;7.560;2022-08-19T00:57:06;100839.94;;;18.33;88.33
64841;BME280;51307;52.162;7.560;2022-08-19T00:59:35;100826.94;;;18.31;88.24
64841;BME280;51307;52.162;7.560;2022-08-19T01:02:04;100829.75;;;18.29;88.20
64841;BME280;51307;52.162;7.560;2022-08-19T01:04:29;100823.88;;;18.27;88.29
64841;BME280;51307;52.162;7.560;2022-08-19T01:06:55;100826.50;;;18.27;88.85
64841;BME280;51307;52.162;7.560;2022-08-19T01:09:21;100824.91;;;18.26;89.46
64841;BME280;51307;52.162;7.560;2022-08-19T01:11:47;100824.91;;;18.26;89.87
64841;BME280;51307;52.162;7.560;2022-08-19T01:14:13;100817.78;;;18.27;89.85
64841;BME280;51307;52.162;7.560;2022-08-19T01:16:40;100827.53;;;18.26;89.57
64841;BME280;51307;52.162;7.560;2022-08-19T01:19:18;100817.97;;;18.25;89.93
64841;BME280;51307;52.162;7.560;2022-08-19T01:22:04;100828.75;;;18.24;90.16
64841;BME280;51307;52.162;7.560;2022-08-19T01:24:31;100820.22;;;18.22;90.22
64841;BME280;51307;52.162;7.560;2022-08-19T01:26:57;100817.13;;;18.18;90.47
64841;BME280;51307;52.162;7.560;2022-08-19T01:29:23;100812.44;;;18.14;90.40
64841;BME280;51307;52.162;7.560;2022-08-19T01:31:49;100813.06;;;18.09;90.15
64841;BME280;51307;52.162;7.560;2022-08-19T01:34:17;100802.06;;;18.05;90.28
64841;BME280;51307;52.162;7.560;2022-08-19T01:36:45;100803.91;;;18.05;90.18
64841;BME280;51307;52.162;7.560;2022-08-19T01:39:16;100801.06;;;18.06;90.46
64841;BME280;51307;52.162;7.560;2022-08-19T01:41:42;100803.50;;;18.01;89.38
64841;BME280;51307;52.162;7.560;2022-08-19T01:44:09;100811.63;;;17.93;89.41
64841;BME280;51307;52.162;7.560;2022-08-19T01:46:35;100814.06;;;17.88;89.07
64841;BME280;51307;52.162;7.560;2022-08-19T01:49:03;100818.13;;;17.84;89.15
64841;BME280;51307;52.162;7.560;2022-08-19T01:51:28;100810.38;;;17.82;89.03
64841;BME280;51307;52.162;7.560;2022-08-19T01:53:56;100820.94;;;17.82;89.32
64841;BME280;51307;52.162;7.560;2022-08-19T01:56:22;100816.47;;;17.83;89.28
64841;BME280;51307;52.162;7.560;2022-08-19T01:59:00;100813.63;;;17.84;89.35
64841;BME280;51307;52.162;7.560;2022-08-19T02:01:27;100816.47;;;17.83;89.20
64841;BME280;51307;52.162;7.560;2022-08-19T02:03:52;100815.84;;;17.81;89.18
64841;BME280;51307;52.162;7.560;2022-08-19T02:06:19;100822.53;;;17.77;89.23
64841;BME280;51307;52.162;7.560;2022-08-19T02:08:45;100820.91;;;17.69;89.35
64841;BME280;51307;52.162;7.560;2022-08-19T02:11:23;100821.31;;;17.59;89.89
64841;BME280;51307;52.162;7.560;2022-08-19T02:13:53;100812.97;;;17.62;89.65
64841;BME280;51307;52.162;7.560;2022-08-19T02:16:19;100815.63;;;17.62;89.70
64841;BME280;51307;52.162;7.560;2022-08-19T02:18:46;100814.41;;;17.65;89.88
64841;BME280;51307;52.162;7.560;2022-08-19T02:21:18;100812.16;;;17.62;90.93
64841;BME280;51307;52.162;7.560;2022-08-19T02:23:45;100816.03;;;17.59;91.85
64841;BME280;51307;52.162;7.560;2022-08-19T02:26:11;100815.19;;;17.59;91.63
64841;BME280;51307;52.162;7.560;2022-08-19T02:28:39;100810.53;;;17.61;91.74
64841;BME280;51307;52.162;7.560;2022-08-19T02:31:09;100805.66;;;17.58;91.44
64841;BME280;51307;52.162;7.560;2022-08-19T02:33:35;100803.59;;;17.53;91.07
64841;BME280;51307;52.162;7.560;2022-08-19T02:36:04;100804.41;;;17.54;90.71
64841;BME280;51307;52.162;7.560;2022-08-19T02:38:29;100805.63;;;17.51;90.51
64841;BME280;51307;52.162;7.560;2022-08-19T02:41:00;100798.94;;;17.48;90.80
64841;BME280;51307;52.162;7.560;2022-08-19T02:43:29;100805.81;;;17.49;90.72
64841;BME280;51307;52.162;7.560;2022-08-19T02:45:55;100798.31;;;17.53;91.51
64841;BME280;51307;52.162;7.560;2022-08-19T02:48:23;100802.59;;;17.54;91.71
64841;BME280;51307;52.162;7.560;2022-08-19T02:50:51;100808.66;;;17.55;91.17
64841;BME280;51307;52.162;7.560;2022-08-19T02:53:26;100808.47;;;17.49;91.17
64841;BME280;51307;52.162;7.560;2022-08-19T02:55:53;100806.81;;;17.42;91.66
64841;BME280;51307;52.162;7.560;2022-08-19T02:58:20;100801.72;;;17.40;92.17
64841;BME280;51307;52.162;7.560;2022-08-19T03:00:49;100802.16;;;17.44;92.01
64841;BME280;51307;52.162;7.560;2022-08-19T03:03:16;100798.69;;;17.43;92.00
64841;BME280;51307;52.162;7.560;2022-08-19T03:05:42;100788.75;;;17.45;91.87
64841;BME280;51307;52.162;7.560;2022-08-19T03:08:09;100788.56;;;17.47;91.82
64841;BME280;51307;52.162;7.560;2022-08-19T03:10:47;100788.09;;;17.37;92.25
64841;BME280;51307;52.162;7.560;2022-08-19T03:13:17;100784.38;;;17.24;92.49
64841;BME280;51307;52.162;7.560;2022-08-19T03:15:45;100780.31;;;17.22;92.67
64841;BME280;51307;52.162;7.560;2022-08-19T03:18:12;100783.34;;;17.19;92.65
64841;BME280;51307;52.162;7.560;2022-08-19T03:20:50;100785.34;;;17.17;92.79
64841;BME280;51307;52.162;7.560;2022-08-19T03:23:18;100783.75;;;17.16;92.74
64841;BME280;51307;52.162;7.560;2022-08-19T03:25:45;100784.53;;;17.09;92.77
64841;BME280;51307;52.162;7.560;2022-08-19T03:28:13;100774.56;;;17.05;93.16
64841;BME280;51307;52.162;7.560;2022-08-19T03:30:41;100776.38;;;17.04;93.46
64841;BME280;51307;52.162;7.560;2022-08-19T03:33:09;100771.13;;;17.04;93.62
64841;BME280;51307;52.162;7.560;2022-08-19T03:35:35;100774.78;;;17.10;93.52
64841;BME280;51307;52.162;7.560;2022-08-19T03:38:04;100781.47;;;17.13;93.11
64841;BME280;51307;52.162;7.560;2022-08-19T03:40:31;100785.13;;;17.12;92.79
64841;BME280;51307;52.162;7.560;2022-08-19T03:42:57;100783.09;;;17.07;92.31
64841;BME280;51307;52.162;7.560;2022-08-19T03:45:23;100786.69;;;16.99;92.27
64841;BME280;51307;52.162;7.560;2022-08-19T03:47:48;100796.00;;;16.95;92.01
64841;BME280;51307;52.162;7.560;2022-08-19T03:50:14;100802.06;;;16.89;92.00
64841;BME280;51307;52.162;7.560;2022-08-19T03:52:40;100804.09;;;16.87;92.06
64841;BME280;51307;52.162;7.560;2022-08-19T03:55:06;100797.94;;;16.80;92.30
64841;BME280;51307;52.162;7.560;2022-08-19T03:57:33;100795.88;;;16.75;92.34
64841;BME280;51307;52.162;7.560;2022-08-19T04:00:00;100803.63;;;16.77;92.13
64841;BME280;51307;52.162;7.560;2022-08-19T04:02:26;100799.78;;;16.79;92.38
64841;BME280;51307;52.162;7.560;2022-08-19T04:04:53;100799.97;;;16.78;92.04
64841;BME280;51307;52.162;7.560;2022-08-19T04:07:20;100793.25;;;16.75;92.10
64841;BME280;51307;52.162;7.560;2022-08-19T04:09:47;100805.25;;;16.78;92.10
64841;BME280;51307;52.162;7.560;2022-08-19T04:12:12;100808.25;;;16.75;92.22
64841;BME280;51307;52.162;7.560;2022-08-19T04:14:38;100805.41;;;16.70;92.23
64841;BME280;51307;52.162;7.560;2022-08-19T04:17:04;100802.72;;;16.63;92.02
64841;BME280;51307;52.162;7.560;2022-08-19T04:19:31;100802.91;;;16.61;92.44
64841;BME280;51307;52.162;7.560;2022-08-19T04:21:58;100808.19;;;16.61;92.51
64841;BME280;51307;52.162;7.560;2022-08-19T04:24:24;100805.72;;;16.60;92.69
64841;BME280;51307;52.162;7.560;2022-08-19T04:26:51;100808.34;;;16.60;92.70
64841;BME280;51307;52.162;7.560;2022-08-19T04:29:22;100808.56;;;16.58;92.48
64841;BME280;51307;52.162;7.560;2022-08-19T04:31:51;100816.03;;;16.55;92.38
64841;BME280;51307;52.162;7.560;2022-08-19T04:34:19;100813.59;;;16.53;92.47
64841;BME280;51307;52.162;7.560;2022-08-19T04:36:48;100809.16;;;16.54;92.36
64841;BME280;51307;52.162;7.560;2022-08-19T04:39:20;100808.72;;;16.50;92.04
64841;BME280;51307;52.162;7.560;2022-08-19T04:41:46;100812.72;;;16.46;91.98
64841;BME280;51307;52.162;7.560;2022-08-19T04:44:33;100815.19;;;16.48;92.28
64841;BME280;51307;52.162;7.560;2022-08-19T04:47:00;100808.47;;;16.45;92.22
64841;BME280;51307;52.162;7.560;2022-08-19T04:49:25;100817.38;;;16.44;92.14
64841;BME280;51307;52.162;7.560;2022-08-19T04:51:53;100808.66;;;16.43;92.36
64841;BME280;51307;52.162;7.560;2022-08-19T04:54:21;100808.09;;;16.48;92.80
64841;BME280;51307;52.162;7.560;2022-08-19T04:56:52;100813.59;;;16.53;93.22
64841;BME280;51307;52.162;7.560;2022-08-19T04:59:19;100812.81;;;16.59;93.01
64841;BME280;51307;52.162;7.560;2022-08-19T05:01:46;100825.66;;;16.62;92.87
64841;BME280;51307;52.162;7.560;2022-08-19T05:04:18;100822.59;;;16.65;92.69
64841;BME280;51307;52.162;7.560;2022-08-19T05:06:45;100823.06;;;16.69;92.60
64841;BME280;51307;52.162;7.560;2022-08-19T05:09:10;100819.22;;;16.72;92.88
64841;BME280;51307;52.162;7.560;2022-08-19T05:11:37;100818.41;;;16.71;92.86
64841;BME280;51307;52.162;7.560;2022-08-19T05:14:05;100824.09;;;16.75;92.83
64841;BME280;51307;52.162;7.560;2022-08-19T05:16:31;100821.25;;;16.76;93.06
64841;BME280;51307;52.162;7.560;2022-08-19T05:18:57;100835.88;;;16.79;93.05
64841;BME280;51307;52.162;7.560;2022-08-19T05:21:42;100832.63;;;16.77;92.66
64841;BME280;51307;52.162;7.560;2022-08-19T05:24:27;100831.19;;;16.74;92.80
64841;BME280;51307;52.162;7.560;2022-08-19T05:26:54;100829.13;;;16.70;93.19
64841;BME280;51307;52.162;7.560;2022-08-19T05:29:24;100832.75;;;16.68;93.43
64841;BME280;51307;52.162;7.560;2022-08-19T05:31:51;100840.50;;;16.70;93.59
64841;BME280;51307;52.162;7.560;2022-08-19T05:34:19;100840.94;;;16.74;93.74
64841;BME280;51307;52.162;7.560;2022-08-19T05:36:48;100843.00;;;16.78;93.75
64841;BME280;51307;52.162;7.560;2022-08-19T05:39:17;100839.78;;;16.83;93.74
64841;BME280;51307;52.162;7.560;2022-08-19T05:41:45;100839.59;;;16.84;94.48
64841;BME280;51307;52.162;7.560;2022-08-19T05:44:12;100833.47;;;16.84;94.91
64841;BME280;51307;52.162;7.560;2022-08-19T05:46:39;100829.44;;;16.88;95.24
64841;BME280;51307;52.162;7.560;2022-08-19T05:49:06;100837.78;;;16.92;95.10
64841;BME280;51307;52.162;7.560;2022-08-19T05:51:33;100832.34;;;16.93;95.24
64841;BME280;51307;52.162;7.560;2022-08-19T05:54:03;100831.94;;;16.96;95.97
64841;BME280;51307;52.162;7.560;2022-08-19T05:56:30;100837.25;;;17.03;96.34
64841;BME280;51307;52.162;7.560;2022-08-19T05:58:56;100831.00;;;17.11;96.37
64841;BME280;51307;52.162;7.560;2022-08-19T06:01:22;100823.53;;;17.21;96.70
64841;BME280;51307;52.162;7.560;2022-08-19T06:03:47;100824.59;;;17.26;97.77
64841;BME280;51307;52.162;7.560;2022-08-19T06:06:15;100828.91;;;17.34;98.40
64841;BME280;51307;52.162;7.560;2022-08-19T06:08:41;100822.66;;;17.42;98.42
64841;BME280;51307;52.162;7.560;2022-08-19T06:13:51;100832.66;;;17.53;98.66
64841;BME280;51307;52.162;7.560;2022-08-19T06:16:19;100832.88;;;17.58;98.94
64841;BME280;51307;52.162;7.560;2022-08-19T06:18:50;100830.25;;;17.65;98.97
64841;BME280;51307;52.162;7.560;2022-08-19T06:21:18;100835.13;;;17.68;99.17
64841;BME280;51307;52.162;7.560;2022-08-19T06:23:44;100827.81;;;17.77;99.36
64841;BME280;51307;52.162;7.560;2022-08-19T06:26:15;100830.47;;;17.83;98.98
64841;BME280;51307;52.162;7.560;2022-08-19T06:28:41;100825.22;;;17.90;98.86
64841;BME280;51307;52.162;7.560;2022-08-19T06:31:17;100826.66;;;17.93;98.78
64841;BME280;51307;52.162;7.560;2022-08-19T06:33:44;100816.50;;;17.96;99.03
64841;BME280;51307;52.162;7.560;2022-08-19T06:36:32;100824.66;;;18.01;98.68
64841;BME280;51307;52.162;7.560;2022-08-19T06:39:01;100816.72;;;18.08;98.79
64841;BME280;51307;52.162;7.560;2022-08-19T06:41:28;100818.75;;;18.13;98.89
64841;BME280;51307;52.162;7.560;2022-08-19T06:43:55;100822.63;;;18.17;98.97
64841;BME280;51307;52.162;7.560;2022-08-19T06:46:21;100819.41;;;18.21;98.60
64841;BME280;51307;52.162;7.560;2022-08-19T06:48:48;100822.06;;;18.28;98.60
64841;BME280;51307;52.162;7.560;2022-08-19T06:51:16;100812.91;;;18.30;98.29
64841;BME280;51307;52.162;7.560;2022-08-19T06:53:48;100814.50;;;18.38;98.04
64841;BME280;51307;52.162;7.560;2022-08-19T06:56:16;100813.50;;;18.46;97.93
64841;BME280;51307;52.162;7.560;2022-08-19T06:58:42;100822.25;;;18.53;97.40
64841;BME280;51307;52.162;7.560;2022-08-19T07:01:09;100817.97;;;18.59;97.12
64841;BME280;51307;52.162;7.560;2022-08-19T07:03:36;100811.47;;;18.61;97.61
64841;BME280;51307;52.162;7.560;2022-08-19T07:06:14;100800.06;;;18.67;97.55
64841;BME280;51307;52.162;7.560;2022-08-19T07:08:44;100796.19;;;18.70;97.10
64841;BME280;51307;52.162;7.560;2022-08-19T07:11:11;100793.53;;;18.77;96.95
64841;BME280;51307;52.162;7.560;2022-08-19T07:13:39;100796.97;;;18.84;97.17
64841;BME280;51307;52.162;7.560;2022-08-19T07:16:12;100807.34;;;18.92;96.75
64841;BME280;51307;52.162;7.560;2022-08-19T07:18:39;100810.34;;;18.96;96.16
64841;BME280;51307;52.162;7.560;2022-08-19T07:21:09;100815.44;;;19.04;96.12
64841;BME280;51307;52.162;7.560;2022-08-19T07:23:35;100813.59;;;19.11;95.33
64841;BME280;51307;52.162;7.560;2022-08-19T07:26:06;100817.25;;;19.17;95.11
64841;BME280;51307;52.162;7.560;2022-08-19T07:28:32;100821.94;;;19.21;94.20
64841;BME280;51307;52.162;7.560;2022-08-19T07:30:57;100825.78;;;19.25;93.97
64841;BME280;51307;52.162;7.560;2022-08-19T07:33:23;100825.75;;;19.32;94.42
64841;BME280;51307;52.162;7.560;2022-08-19T07:35:48;100815.94;;;19.39;92.35
64841;BME280;51307;52.162;7.560;2022-08-19T07:38:15;100814.47;;;19.50;92.31
64841;BME280;51307;52.162;7.560;2022-08-19T07:40:41;100821.16;;;19.59;92.05
64841;BME280;51307;52.162;7.560;2022-08-19T07:43:08;100823.38;;;19.62;92.73
64841;BME280;51307;52.162;7.560;2022-08-19T07:45:34;100820.09;;;19.67;92.29
64841;BME280;51307;52.162;7.560;2022-08-19T07:47:59;100829.81;;;19.73;92.01
64841;BME280;51307;52.162;7.560;2022-08-19T07:50:26;100835.09;;;19.80;92.06
64841;BME280;51307;52.162;7.560;2022-08-19T07:52:51;100845.44;;;19.88;91.59
64841;BME280;51307;52.162;7.560;2022-08-19T07:55:23;100838.91;;;19.90;90.80
64841;BME280;51307;52.162;7.560;2022-08-19T07:57:49;100844.78;;;19.99;90.12
64841;BME280;51307;52.162;7.560;2022-08-19T08:00:15;100850.03;;;20.06;89.59
64841;BME280;51307;52.162;7.560;2022-08-19T08:02:40;100843.88;;;20.12;89.37
64841;BME280;51307;52.162;7.560;2022-08-19T08:05:08;100859.34;;;20.22;89.03
64841;BME280;51307;52.162;7.560;2022-08-19T08:07:52;100858.03;;;20.31;87.56
64841;BME280;51307;52.162;7.560;2022-08-19T08:10:37;100858.63;;;20.33;86.79
64841;BME280;51307;52.162;7.560;2022-08-19T08:13:02;100856.19;;;20.31;87.09
64841;BME280;51307;52.162;7.560;2022-08-19T08:15:30;100853.75;;;20.30;86.76
64841;BME280;51307;52.162;7.560;2022-08-19T08:17:56;100859.66;;;20.32;87.23
64841;BME280;51307;52.162;7.560;2022-08-19T08:20:23;100855.16;;;20.32;86.76
64841;BME280;51307;52.162;7.560;2022-08-19T08:22:50;100849.38;;;20.42;86.83
64841;BME280;51307;52.162;7.560;2022-08-19T08:25:35;100861.19;;;20.46;86.44
64841;BME280;51307;52.162;7.560;2022-08-19T08:28:02;100860.69;;;20.56;85.48
64841;BME280;51307;52.162;7.560;2022-08-19T08:30:30;100866.59;;;20.58;85.94
64841;BME280;51307;52.162;7.560;2022-08-19T08:32:58;100872.88;;;20.64;83.75
64841;BME280;51307;52.162;7.560;2022-08-19T08:35:24;100876.34;;;20.64;83.85
64841;BME280;51307;52.162;7.560;2022-08-19T08:37:52;100878.34;;;20.69;84.12
64841;BME280;51307;52.162;7.560;2022-08-19T08:40:29;100872.41;;;20.73;84.23
64841;BME280;51307;52.162;7.560;2022-08-19T08:43:05;100878.09;;;20.77;83.99
64841;BME280;51307;52.162;7.560;2022-08-19T08:45:38;100873.13;;;20.81;83.05
64841;BME280;51307;52.162;7.560;2022-08-19T08:54:01;100873.53;;;20.84;82.89
64841;BME280;51307;52.162;7.560;2022-08-19T08:56:28;100871.00;;;20.89;82.98
64841;BME280;51307;52.162;7.560;2022-08-19T08:59:04;100874.25;;;20.91;82.95
64841;BME280;51307;52.162;7.560;2022-08-19T09:01:34;100872.00;;;20.95;81.27
64841;BME280;51307;52.162;7.560;2022-08-19T09:04:05;100877.31;;;20.95;81.32
64841;BME280;51307;52.162;7.560;2022-08-19T09:09:42;100869.28;;;21.02;81.65
64841;BME280;51307;52.162;7.560;2022-08-19T09:14:57;100869.94;;;21.15;81.17
64841;BME280;51307;52.162;7.560;2022-08-19T09:17:30;100878.50;;;21.17;80.31
64841;BME280;51307;52.162;7.560;2022-08-19T09:22:21;100869.47;;;21.18;78.92
64841;BME280;51307;52.162;7.560;2022-08-19T09:24:50;100870.53;;;21.17;78.57
64841;BME280;51307;52.162;7.560;2022-08-19T09:27:20;100872.50;;;21.22;79.26
64841;BME280;51307;52.162;7.560;2022-08-19T09:29:46;100862.03;;;21.27;78.83
64841;BME280;51307;52.162;7.560;2022-08-19T09:32:13;100870.75;;;21.34;78.56
64841;BME280;51307;52.162;7.560;2022-08-19T09:34:39;100868.44;;;21.38;77.78
64841;BME280;51307;52.162;7.560;2022-08-19T09:37:05;100867.19;;;21.40;77.41
64841;BME280;51307;52.162;7.560;2022-08-19T09:39:30;100866.16;;;21.42;76.99
64841;BME280;51307;52.162;7.560;2022-08-19T09:41:56;100871.41;;;21.48;77.44
64841;BME280;51307;52.162;7.560;2022-08-19T09:44:22;100868.91;;;21.53;77.41
64841;BME280;51307;52.162;7.560;2022-08-19T09:46:47;100876.19;;;21.58;75.29
64841;BME280;51307;52.162;7.560;2022-08-19T09:49:14;100870.66;;;21.59;75.11
64841;BME280;51307;52.162;7.560;2022-08-19T09:51:39;100872.88;;;21.63;75.27
64841;BME280;51307;52.162;7.560;2022-08-19T09:54:05;100867.13;;;21.66;75.60
64841;BME280;51307;52.162;7.560;2022-08-19T09:56:32;100860.53;;;21.68;74.82
64841;BME280;51307;52.162;7.560;2022-08-19T09:58:59;100861.59;;;21.67;74.52
64841;BME280;51307;52.162;7.560;2022-08-19T10:01:26;100859.50;;;21.69;75.02
64841;BME280;51307;52.162;7.560;2022-08-19T10:03:55;100857.66;;;21.70;74.23
64841;BME280;51307;52.162;7.560;2022-08-19T10:06:23;100861.72;;;21.72;73.61
64841;BME280;51307;52.162;7.560;2022-08-19T10:08:50;100862.53;;;21.73;73.80
64841;BME280;51307;52.162;7.560;2022-08-19T10:11:18;100858.47;;;21.70;73.22
64841;BME280;51307;52.162;7.560;2022-08-19T10:13:45;100857.66;;;21.70;74.03
64841;BME280;51307;52.162;7.560;2022-08-19T10:16:15;100855.13;;;21.75;74.16
64841;BME280;51307;52.162;7.560;2022-08-19T10:18:41;100858.28;;;21.84;73.38
64841;BME280;51307;52.162;7.560;2022-08-19T10:21:18;100852.66;;;21.92;73.40
64841;BME280;51307;52.162;7.560;2022-08-19T10:23:47;100860.66;;;22.04;72.33
64841;BME280;51307;52.162;7.560;2022-08-19T10:26:16;100859.38;;;22.06;70.95
64841;BME280;51307;52.162;7.560;2022-08-19T10:28:42;100860.44;;;22.05;70.52
64841;BME280;51307;52.162;7.560;2022-08-19T10:40:30;100847.81;;;22.42;69.88
64841;BME280;51307;52.162;7.560;2022-08-19T10:42:56;100840.53;;;22.38;69.45
64841;BME280;51307;52.162;7.560;2022-08-19T10:45:22;100840.38;;;22.33;69.77
64841;BME280;51307;52.162;7.560;2022-08-19T10:47:50;100843.72;;;22.28;70.29
64841;BME280;51307;52.162;7.560;2022-08-19T10:50:15;100842.47;;;22.31;70.51
64841;BME280;51307;52.162;7.560;2022-08-19T10:53:04;100842.13;;;22.39;70.75
64841;BME280;51307;52.162;7.560;2022-08-19T10:55:30;100836.34;;;22.42;69.84
64841;BME280;51307;52.162;7.560;2022-08-19T10:58:18;100841.22;;;22.45;66.90
64841;BME280;51307;52.162;7.560;2022-08-19T11:00:58;100837.38;;;22.53;66.17
64841;BME280;51307;52.162;7.560;2022-08-19T11:03:25;100835.66;;;22.58;65.40
64841;BME280;51307;52.162;7.560;2022-08-19T11:09:24;100832.09;;;22.65;66.08
64841;BME280;51307;52.162;7.560;2022-08-19T11:11:51;100830.69;;;22.74;64.93
64841;BME280;51307;52.162;7.560;2022-08-19T11:14:20;100833.66;;;22.77;64.37
64841;BME280;51307;52.162;7.560;2022-08-19T11:16:48;100831.59;;;22.79;64.11
64841;BME280;51307;52.162;7.560;2022-08-19T11:19:14;100832.75;;;22.83;64.96
64841;BME280;51307;52.162;7.560;2022-08-19T11:21:44;100835.53;;;22.89;65.09
64841;BME280;51307;52.162;7.560;2022-08-19T11:24:17;100840.16;;;22.93;66.19
64841;BME280;51307;52.162;7.560;2022-08-19T11:26:44;100835.06;;;22.92;66.23
64841;BME280;51307;52.162;7.560;2022-08-19T11:29:11;100827.16;;;22.97;66.96
64841;BME280;51307;52.162;7.560;2022-08-19T11:31:41;100834.56;;;22.95;66.53
64841;BME280;51307;52.162;7.560;2022-08-19T11:34:10;100836.81;;;22.98;66.53
64841;BME280;51307;52.162;7.560;2022-08-19T11:36:39;100830.22;;;23.00;63.06
64841;BME280;51307;52.162;7.560;2022-08-19T11:39:06;100825.47;;;23.02;63.25
64841;BME280;51307;52.162;7.560;2022-08-19T11:41:35;100824.97;;;23.06;64.45
64841;BME280;51307;52.162;7.560;2022-08-19T11:44:01;100816.19;;;23.05;64.38
64841;BME280;51307;52.162;7.560;2022-08-19T11:46:28;100813.97;;;23.14;65.91
64841;BME280;51307;52.162;7.560;2022-08-19T11:48:55;100817.28;;;23.21;65.93
64841;BME280;51307;52.162;7.560;2022-08-19T11:51:23;100811.97;;;23.21;66.03
64841;BME280;51307;52.162;7.560;2022-08-19T11:53:50;100813.47;;;23.17;64.72
64841;BME280;51307;52.162;7.560;2022-08-19T11:56:17;100806.19;;;23.12;65.13
64841;BME280;51307;52.162;7.560;2022-08-19T11:58:44;100819.78;;;23.11;65.07
64841;BME280;51307;52.162;7.560;2022-08-19T12:01:15;100815.03;;;23.13;64.62
64841;BME280;51307;52.162;7.560;2022-08-19T12:03:41;100816.06;;;23.12;64.75
64841;BME280;51307;52.162;7.560;2022-08-19T12:06:11;100818.63;;;23.07;64.35
64841;BME280;51307;52.162;7.560;2022-08-19T12:08:40;100819.34;;;23.02;64.34
64841;BME280;51307;52.162;7.560;2022-08-19T12:11:07;100827.56;;;23.00;65.22
64841;BME280;51307;52.162;7.560;2022-08-19T12:13:37;100821.84;;;22.97;65.23
64841;BME280;51307;52.162;7.560;2022-08-19T12:16:11;100820.69;;;22.93;65.41
64841;BME280;51307;52.162;7.560;2022-08-19T12:18:42;100817.47;;;22.91;64.87
64841;BME280;51307;52.162;7.560;2022-08-19T12:21:13;100815.25;;;22.88;65.74
64841;BME280;51307;52.162;7.560;2022-08-19T12:23:40;100824.31;;;22.87;65.44
64841;BME280;51307;52.162;7.560;2022-08-19T12:26:09;100814.47;;;22.87;65.24
64841;BME280;51307;52.162;7.560;2022-08-19T12:28:34;100813.28;;;22.95;64.80
64841;BME280;51307;52.162;7.560;2022-08-19T12:31:00;100800.22;;;23.05;64.93
64841;BME280;51307;52.162;7.560;2022-08-19T12:33:26;100805.03;;;23.20;64.24
64841;BME280;51307;52.162;7.560;2022-08-19T12:35:53;100800.22;;;23.34;63.31
64841;BME280;51307;52.162;7.560;2022-08-19T12:38:20;100806.66;;;23.50;62.56
64841;BME280;51307;52.162;7.560;2022-08-19T12:40:49;100792.47;;;23.61;62.06
64841;BME280;51307;52.162;7.560;2022-08-19T12:43:17;100787.97;;;23.61;61.69
64841;BME280;51307;52.162;7.560;2022-08-19T12:45:44;100791.88;;;23.59;61.25
64841;BME280;51307;52.162;7.560;2022-08-19T12:48:10;100780.75;;;23.62;59.98
64841;BME280;51307;52.162;7.560;2022-08-19T12:50:35;100792.91;;;23.70;59.34
64841;BME280;51307;52.162;7.560;2022-08-19T12:53:03;100778.84;;;23.74;58.85
64841;BME280;51307;52.162;7.560;2022-08-19T12:55:29;100780.00;;;23.78;58.93
64841;BME280;51307;52.162;7.560;2022-08-19T12:57:55;100777.50;;;23.89;57.91
64841;BME280;51307;52.162;7.560;2022-08-19T13:00:21;100781.31;;;23.93;57.94
64841;BME280;51307;52.162;7.560;2022-08-19T13:02:50;100773.63;;;23.96;57.52
64841;BME280;51307;52.162;7.560;2022-08-19T13:05:22;100771.28;;;24.00;57.72
64841;BME280;51307;52.162;7.560;2022-08-19T13:07:51;100778.31;;;24.06;57.77
64841;BME280;51307;52.162;7.560;2022-08-19T13:10:19;100780.81;;;24.13;58.59
64841;BME280;51307;52.162;7.560;2022-08-19T13:12:48;100774.34;;;24.25;58.46
64841;BME280;51307;52.162;7.560;2022-08-19T13:15:15;100776.00;;;24.32;58.89
64841;BME280;51307;52.162;7.560;2022-08-19T13:17:45;100772.16;;;24.39;58.26
64841;BME280;51307;52.162;7.560;2022-08-19T13:20:12;100769.66;;;24.50;58.88
64841;BME280;51307;52.162;7.560;2022-08-19T13:22:38;100765.00;;;24.62;59.21
64841;BME280;51307;52.162;7.560;2022-08-19T13:25:05;100769.41;;;24.73;58.96